02/05 12:00 更新

3,000ftに雲が少し

地上風: 080°5kt
(010°~ 150°で変動)

上空風(熊谷 12:40更新)
13,000ft: 未計測
10,000ft: 未計測
 7,000ft: 230° 17kt
 3,000ft: 290° 6kt

地上: 10℃
上空: -17.1℃

日没: 17:12

実況天気図


予想天気図


RJTJ 050300Z 08005KT 010V150 9999 FEW030 10/M04 Q1021 RMK 1CU030 A3017=

GPV気象予報
気象庁
日本気象協会

太郎衛門橋テレメータ水位(11mでDZ冠水)

skydive.jp